Time;durP1;ratioP1;P1;durP2;ratioP2;P2;SDS_P1;SDS_P2;PMS_P1;PMS_P2;Temp;Humidity;BMP_temperature;BMP_pressure;BME280_temperature;BME280_humidity;BME280_pressure;Samples;Min_cycle;Max_cycle;Signal;HPM_P1;HPM_P2
2023/08/23 00:02:16;;;;;;;;;;;;;;;22.57;83.81;95422.06;5134787;27;1027;-56
2023/08/23 00:04:42;;;;;;;;;;;;;;;22.85;81.75;95419.81;5134736;27;1052;-57
2023/08/23 00:07:08;;;;;;;;;;;;;;;22.73;82.94;95423.34;5134776;27;1040;-57
2023/08/23 00:09:33;;;;;;;;;;;;;;;22.63;83.48;95430.38;5134390;27;1078;-57
2023/08/23 00:11:59;;;;;;;;;;;;;;;22.60;83.44;95431.69;5134458;27;972;-57
2023/08/23 00:14:25;;;;;;;;;;;;;;;22.68;83.57;95420.47;5134671;27;981;-56
2023/08/23 00:16:51;;;;;;;;;;;;;;;22.57;83.88;95416.63;5134658;27;1990;-56
2023/08/23 00:19:17;;;;;;;;;;;;;;;22.37;84.52;95425.06;5134221;27;1161;-56
2023/08/23 00:21:43;;;;;;;;;;;;;;;22.28;84.88;95422.88;5134435;28;976;-56
2023/08/23 00:24:09;;;;;;;;;;;;;;;22.47;82.54;95427.25;5134345;28;1110;-56
2023/08/23 00:26:35;;;;;;;;;;;;;;;22.52;82.25;95430.13;5134836;27;1007;-56
2023/08/23 00:29:01;;;;;;;;;;;;;;;22.32;84.23;95429.53;5138569;27;1040;-56
2023/08/23 00:31:27;;;;;;;;;;;;;;;22.22;84.92;95416.41;5138484;27;1874;-56
2023/08/23 00:33:53;;;;;;;;;;;;;;;22.22;85.74;95421.84;5138451;27;1045;-56
2023/08/23 00:36:19;;;;;;;;;;;;;;;22.24;84.50;95427.91;5120339;27;985;-56
2023/08/23 00:38:45;;;;;;;;;;;;;;;22.24;84.48;95422.47;5138413;27;1914;-56
2023/08/23 00:41:11;;;;;;;;;;;;;;;22.02;85.39;95428.38;5138291;27;1032;-57
2023/08/23 00:43:37;;;;;;;;;;;;;;;21.76;86.89;95428.63;5138209;27;1123;-56
2023/08/23 00:46:03;;;;;;;;;;;;;;;21.88;85.94;95432.28;5138085;27;1242;-56
2023/08/23 00:48:29;;;;;;;;;;;;;;;21.91;85.51;95431.84;5138342;27;965;-56
2023/08/23 00:50:56;;;;;;;;;;;;;;;21.69;86.31;95428.69;5138175;27;1122;-56
2023/08/23 00:53:22;;;;;;;;;;;;;;;21.61;86.57;95423.56;5138112;27;1040;-56
2023/08/23 00:55:48;;;;;;;;;;;;;;;21.63;86.18;95424.97;5138456;27;1071;-56
2023/08/23 00:58:15;;;;;;;;;;;;;;;21.83;84.41;95423.94;5137875;27;1918;-56
2023/08/23 01:00:41;;;;;;;;;;;;;;;21.92;83.96;95419.88;5120192;27;983;-56
2023/08/23 01:03:07;;;;;;;;;;;;;;;21.88;83.57;95424.09;5137057;27;2407;-56
2023/08/23 01:05:33;;;;;;;;;;;;;;;21.91;83.21;95425.53;5138012;27;1237;-57
2023/08/23 01:08:17;;;;;;;;;;;;;;;21.89;83.09;95423.03;5137913;27;1106;-57
2023/08/23 01:10:48;;;;;;;;;;;;;;;21.87;83.16;95425.16;5137761;27;1083;-57
2023/08/23 01:13:20;;;;;;;;;;;;;;;21.58;84.93;95430.25;5137699;27;1031;-56
2023/08/23 01:15:46;;;;;;;;;;;;;;;21.52;85.16;95431.16;5137775;27;1059;-56
2023/08/23 01:18:13;;;;;;;;;;;;;;;21.59;84.75;95429.22;5138010;27;2062;-56
2023/08/23 01:20:39;;;;;;;;;;;;;;;21.71;84.55;95425.75;5137873;27;1165;-56
2023/08/23 01:23:13;;;;;;;;;;;;;;;21.67;83.76;95430.81;5137637;27;1060;-56
2023/08/23 01:25:42;;;;;;;;;;;;;;;21.61;85.32;95427.09;5137500;27;1068;-56
2023/08/23 01:28:08;;;;;;;;;;;;;;;21.62;85.32;95428.75;5137797;27;969;-56
2023/08/23 01:30:34;;;;;;;;;;;;;;;21.59;85.29;95431.94;5136495;27;2921;-56
2023/08/23 01:33:03;;;;;;;;;;;;;;;21.55;85.55;95440.75;5137476;27;1052;-56
2023/08/23 01:35:32;;;;;;;;;;;;;;;21.43;85.35;95432.44;5137390;27;972;-56
2023/08/23 01:38:01;;;;;;;;;;;;;;;21.19;86.03;95429.50;5137121;27;2016;-56
2023/08/23 01:40:27;;;;;;;;;;;;;;;20.97;87.03;95430.91;5137510;27;964;-56
2023/08/23 01:42:55;;;;;;;;;;;;;;;21.01;87.49;95435.69;5137385;27;1040;-56
2023/08/23 01:45:20;;;;;;;;;;;;;;;21.23;86.34;95435.34;5137067;27;1108;-56
2023/08/23 01:47:46;;;;;;;;;;;;;;;21.54;83.52;95437.19;5137111;27;1028;-56
2023/08/23 01:50:12;;;;;;;;;;;;;;;21.48;83.67;95431.84;5137304;27;977;-56
2023/08/23 01:52:38;;;;;;;;;;;;;;;21.29;85.47;95439.88;5136976;27;1044;-56
2023/08/23 01:55:04;;;;;;;;;;;;;;;21.04;86.52;95448.03;5136984;27;1086;-56
2023/08/23 01:57:30;;;;;;;;;;;;;;;20.90;87.39;95432.84;5136777;27;1909;-56
2023/08/23 01:59:56;;;;;;;;;;;;;;;20.92;87.36;95430.75;5137200;27;1044;-56
2023/08/23 02:02:22;;;;;;;;;;;;;;;21.06;86.34;95430.44;5136990;27;1028;-56
2023/08/23 02:04:49;;;;;;;;;;;;;;;21.24;84.99;95432.38;5136782;27;1040;-57
2023/08/23 02:07:15;;;;;;;;;;;;;;;21.12;85.20;95428.72;5136669;27;994;-56
2023/08/23 02:09:41;;;;;;;;;;;;;;;20.98;86.32;95435.28;5136586;27;1056;-55
2023/08/23 02:12:07;;;;;;;;;;;;;;;20.99;85.43;95434.25;5136846;27;969;-56
2023/08/23 02:14:32;;;;;;;;;;;;;;;20.73;87.36;95437.97;5118299;27;1091;-56
2023/08/23 02:16:58;;;;;;;;;;;;;;;20.54;88.36;95436.97;5118362;27;1996;-56
2023/08/23 02:19:24;;;;;;;;;;;;;;;20.76;87.31;95435.63;5135607;27;2738;-56
2023/08/23 02:21:50;;;;;;;;;;;;;;;20.88;86.33;95434.94;5135265;27;2563;-56
2023/08/23 02:24:16;;;;;;;;;;;;;;;20.91;86.43;95421.75;5118125;27;1095;-56
2023/08/23 02:26:42;;;;;;;;;;;;;;;20.81;86.96;95427.69;5136652;27;984;-56
2023/08/23 02:29:08;;;;;;;;;;;;;;;20.67;87.85;95432.34;5136477;27;1012;-56
2023/08/23 02:31:34;;;;;;;;;;;;;;;20.57;88.16;95425.69;5136458;27;988;-56
2023/08/23 02:34:00;;;;;;;;;;;;;;;20.53;88.08;95424.47;5117943;27;1055;-56
2023/08/23 02:36:26;;;;;;;;;;;;;;;20.29;88.65;95430.38;5136267;27;1039;-56
2023/08/23 02:38:53;;;;;;;;;;;;;;;20.21;89.23;95430.63;5136375;27;1910;-57
2023/08/23 02:41:19;;;;;;;;;;;;;;;20.42;88.51;95426.78;5136266;27;972;-57
2023/08/23 02:43:45;;;;;;;;;;;;;;;20.53;87.76;95429.91;5136300;27;1003;-57
2023/08/23 02:46:11;;;;;;;;;;;;;;;20.57;87.79;95418.38;5135885;27;996;-57
2023/08/23 02:48:37;;;;;;;;;;;;;;;20.40;87.54;95399.03;5136014;27;1019;-57
2023/08/23 02:51:03;;;;;;;;;;;;;;;20.29;88.40;95427.69;5135299;27;1032;-57
2023/08/23 02:53:29;;;;;;;;;;;;;;;20.35;88.22;95428.69;5136038;27;1003;-57
2023/08/23 02:55:55;;;;;;;;;;;;;;;20.46;87.70;95425.31;5135989;27;1019;-57
2023/08/23 02:58:21;;;;;;;;;;;;;;;20.67;86.28;95426.06;5135868;27;1909;-58
2023/08/23 03:00:47;;;;;;;;;;;;;;;20.37;87.55;95429.31;5135681;27;1043;-58
2023/08/23 03:03:13;;;;;;;;;;;;;;;20.08;89.62;95436.94;5135206;27;1114;-59
2023/08/23 03:05:39;;;;;;;;;;;;;;;20.11;89.69;95427.56;5115039;28;1101;-59
2023/08/23 03:08:05;;;;;;;;;;;;;;;20.11;89.50;95429.41;5114958;28;1088;-59
2023/08/23 03:10:31;;;;;;;;;;;;;;;20.25;88.42;95433.75;5115196;28;1011;-58
2023/08/23 03:12:57;;;;;;;;;;;;;;;20.34;87.77;95434.38;5114914;28;1040;-59
2023/08/23 03:15:23;;;;;;;;;;;;;;;20.31;87.70;95429.34;5114789;28;1040;-60
2023/08/23 03:17:49;;;;;;;;;;;;;;;20.44;87.01;95432.84;5114821;28;1914;-59
2023/08/23 03:20:15;;;;;;;;;;;;;;;20.40;87.73;95425.34;5124298;27;1126;-59
2023/08/23 03:22:41;;;;;;;;;;;;;;;20.20;88.78;95431.66;5134042;27;2853;-58
2023/08/23 03:25:07;;;;;;;;;;;;;;;20.11;88.96;95434.84;5135409;27;1064;-58
2023/08/23 03:27:33;;;;;;;;;;;;;;;20.24;88.21;95432.94;5135024;27;1048;-58
2023/08/23 03:29:59;;;;;;;;;;;;;;;20.27;88.28;95434.38;5135098;27;1048;-58
2023/08/23 03:32:25;;;;;;;;;;;;;;;20.08;88.70;95438.81;5134974;27;956;-58
2023/08/23 03:34:51;;;;;;;;;;;;;;;20.04;89.35;95443.03;5134977;27;1015;-57
2023/08/23 03:37:17;;;;;;;;;;;;;;;20.03;89.54;95435.91;5134774;27;1998;-59
2023/08/23 03:39:43;;;;;;;;;;;;;;;20.01;89.47;95438.84;5135116;27;996;-59
2023/08/23 03:42:09;;;;;;;;;;;;;;;19.87;89.83;95438.03;5134901;27;1052;-58
2023/08/23 03:44:35;;;;;;;;;;;;;;;19.73;90.10;95438.28;5134760;27;1088;-58
2023/08/23 03:47:01;;;;;;;;;;;;;;;19.57;91.12;95434.94;5135170;27;1059;-57
2023/08/23 03:49:27;;;;;;;;;;;;;;;19.70;90.96;95436.78;5134698;27;1041;-57
2023/08/23 03:51:52;;;;;;;;;;;;;;;19.89;89.42;95445.97;5134630;27;1031;-58
2023/08/23 03:54:19;;;;;;;;;;;;;;;19.91;90.10;95443.06;5134833;27;969;-57
2023/08/23 03:56:45;;;;;;;;;;;;;;;19.86;89.80;95446.38;5134998;27;948;-59
2023/08/23 03:59:11;;;;;;;;;;;;;;;19.93;89.46;95449.94;5134580;27;1901;-58
2023/08/23 04:01:37;;;;;;;;;;;;;;;20.00;89.30;95449.94;5132677;27;2953;-57
2023/08/23 04:04:03;;;;;;;;;;;;;;;19.98;89.49;95450.13;5134840;27;1055;-58
2023/08/23 04:06:29;;;;;;;;;;;;;;;20.12;88.70;95444.66;5134724;27;1032;-58
2023/08/23 04:08:55;;;;;;;;;;;;;;;19.96;89.97;95445.97;5134912;27;1007;-58
2023/08/23 04:11:21;;;;;;;;;;;;;;;19.72;90.50;95450.16;5134686;27;973;-58
2023/08/23 04:13:47;;;;;;;;;;;;;;;19.60;91.26;95450.78;5134626;27;1011;-58
2023/08/23 04:16:13;;;;;;;;;;;;;;;19.73;90.39;95449.97;5134753;27;976;-59
2023/08/23 04:18:40;;;;;;;;;;;;;;;19.76;90.89;95457.69;5116106;28;1992;-58
2023/08/23 04:21:06;;;;;;;;;;;;;;;19.99;89.72;95459.09;5134548;27;1161;-58
2023/08/23 04:23:32;;;;;;;;;;;;;;;20.25;87.99;95455.47;5134349;28;1040;-58
2023/08/23 04:25:58;;;;;;;;;;;;;;;20.48;86.53;95454.97;5134334;28;1103;-57
2023/08/23 04:28:24;;;;;;;;;;;;;;;20.60;86.60;95458.72;5134212;28;1036;-58
2023/08/23 04:30:50;;;;;;;;;;;;;;;20.74;86.13;95464.09;5134271;28;1028;-58
2023/08/23 04:33:15;;;;;;;;;;;;;;;20.74;86.17;95461.38;5134244;28;1003;-57
2023/08/23 04:35:42;;;;;;;;;;;;;;;20.80;87.33;95461.31;5134170;28;1015;-57
2023/08/23 04:38:11;;;;;;;;;;;;;;;21.04;86.15;95462.44;5134185;28;1906;-58
2023/08/23 04:40:37;;;;;;;;;;;;;;;21.45;84.05;95466.56;5134492;28;965;-57
2023/08/23 04:43:03;;;;;;;;;;;;;;;21.86;82.15;95477.94;5134167;28;1046;-57
2023/08/23 04:45:29;;;;;;;;;;;;;;;22.27;80.05;95479.25;5133885;28;1242;-58
2023/08/23 04:47:55;;;;;;;;;;;;;;;22.54;78.93;95470.75;5115980;28;1060;-57
2023/08/23 04:50:21;;;;;;;;;;;;;;;22.73;78.41;95472.41;5134278;28;1047;-57
2023/08/23 04:52:47;;;;;;;;;;;;;;;22.74;79.61;95475.94;5134022;28;1103;-57
2023/08/23 04:55:13;;;;;;;;;;;;;;;22.37;80.57;95468.63;5133956;28;1107;-57
2023/08/23 04:57:39;;;;;;;;;;;;;;;22.15;82.66;95476.38;5133957;28;1901;-58
2023/08/23 05:00:08;;;;;;;;;;;;;;;22.18;83.34;95475.13;5134093;28;979;-56
2023/08/23 05:02:34;;;;;;;;;;;;;;;22.30;82.98;95480.66;5133933;28;1071;-56
2023/08/23 05:05:00;;;;;;;;;;;;;;;22.59;79.73;95473.63;5133939;28;968;-57
2023/08/23 05:07:26;;;;;;;;;;;;;;;22.81;78.59;95473.97;5133970;28;1043;-57
2023/08/23 05:09:52;;;;;;;;;;;;;;;23.01;77.09;95470.97;5134237;28;964;-57
2023/08/23 05:12:19;;;;;;;;;;;;;;;23.10;78.82;95464.16;5134027;27;1029;-57
2023/08/23 05:14:45;;;;;;;;;;;;;;;23.12;79.15;95462.03;5136682;27;2886;-56
2023/08/23 05:17:11;;;;;;;;;;;;;;;23.16;80.51;95465.97;5137522;27;1996;-57
2023/08/23 05:19:37;;;;;;;;;;;;;;;23.23;81.19;95462.31;5137538;27;1145;-57
2023/08/23 05:22:03;;;;;;;;;;;;;;;23.17;82.05;95472.25;5137513;27;1044;-57
2023/08/23 05:24:29;;;;;;;;;;;;;;;23.08;81.19;95471.72;5136619;27;2838;-56
2023/08/23 05:26:55;;;;;;;;;;;;;;;23.16;79.29;95468.69;5137904;27;991;-56
2023/08/23 05:29:21;;;;;;;;;;;;;;;23.34;79.92;95464.22;5136400;27;2866;-57
2023/08/23 05:31:47;;;;;;;;;;;;;;;23.51;77.45;95470.66;5137558;27;1044;-57
2023/08/23 05:34:13;;;;;;;;;;;;;;;23.69;77.62;95467.00;5137326;27;1090;-56
2023/08/23 05:36:39;;;;;;;;;;;;;;;23.69;76.68;95467.00;5137412;27;1024;-56
2023/08/23 05:39:06;;;;;;;;;;;;;;;23.67;76.37;95465.59;5137265;27;1906;-57
2023/08/23 05:41:32;;;;;;;;;;;;;;;23.61;75.59;95461.91;5137269;27;1040;-57
2023/08/23 05:43:58;;;;;;;;;;;;;;;23.63;74.79;95458.94;5137240;27;1114;-56
2023/08/23 05:46:24;;;;;;;;;;;;;;;23.82;74.72;95457.78;5120166;27;1227;-57
2023/08/23 05:48:50;;;;;;;;;;;;;;;23.90;73.97;95467.53;5116558;28;1033;-57
2023/08/23 05:51:16;;;;;;;;;;;;;;;24.08;71.82;95461.94;5116462;28;1092;-57
2023/08/23 05:53:42;;;;;;;;;;;;;;;24.14;70.73;95465.63;5116475;28;1033;-57
2023/08/23 05:56:08;;;;;;;;;;;;;;;24.27;73.10;95461.81;5116404;28;1099;-56
2023/08/23 05:58:34;;;;;;;;;;;;;;;24.39;71.84;95467.28;5116216;28;2039;-57
2023/08/23 06:01:00;;;;;;;;;;;;;;;24.50;72.83;95467.22;5116426;28;1023;-57
2023/08/23 06:03:26;;;;;;;;;;;;;;;24.57;72.17;95464.41;5114994;28;3034;-57
2023/08/23 06:05:56;;;;;;;;;;;;;;;24.69;71.89;95459.72;5116515;28;1001;-57
2023/08/23 06:08:22;;;;;;;;;;;;;;;24.69;72.12;95462.47;5116166;28;1024;-57
2023/08/23 06:10:48;;;;;;;;;;;;;;;24.90;71.14;95462.88;5116255;28;976;-57
2023/08/23 06:13:14;;;;;;;;;;;;;;;25.10;68.51;95457.81;5116050;28;1036;-57
2023/08/23 06:15:40;;;;;;;;;;;;;;;25.04;70.29;95458.78;5115756;28;1028;-57
2023/08/23 06:18:07;;;;;;;;;;;;;;;25.27;69.97;95463.34;5115673;28;1910;-57
2023/08/23 06:20:33;;;;;;;;;;;;;;;25.24;69.46;95457.53;5116026;28;1166;-56
2023/08/23 06:22:59;;;;;;;;;;;;;;;25.26;68.89;95463.59;5115486;28;1071;-58
2023/08/23 06:25:24;;;;;;;;;;;;;;;25.28;69.16;95458.69;5114570;28;1007;-58
2023/08/23 06:27:50;;;;;;;;;;;;;;;25.40;68.63;95464.94;5115987;28;980;-58
2023/08/23 06:30:17;;;;;;;;;;;;;;;25.69;67.71;95464.88;5114306;28;2492;-57
2023/08/23 06:32:45;;;;;;;;;;;;;;;25.66;68.71;95459.88;5115515;28;1090;-58
2023/08/23 06:35:10;;;;;;;;;;;;;;;25.73;67.16;95460.56;5115696;28;1052;-57
2023/08/23 06:37:36;;;;;;;;;;;;;;;25.79;69.01;95458.75;5115416;28;1910;-58
2023/08/23 06:40:02;;;;;;;;;;;;;;;26.07;67.90;95464.13;5115388;28;1020;-58
2023/08/23 06:42:28;;;;;;;;;;;;;;;26.11;68.02;95467.22;5115417;28;1031;-58
2023/08/23 06:44:54;;;;;;;;;;;;;;;26.23;66.62;95461.63;5119322;27;1218;-58
2023/08/23 06:47:20;;;;;;;;;;;;;;;26.39;67.18;95457.16;5135925;27;1054;-58
2023/08/23 06:49:46;;;;;;;;;;;;;;;26.55;68.07;95461.78;5135765;27;1044;-58
2023/08/23 06:52:12;;;;;;;;;;;;;;;26.61;66.05;95449.81;5135632;27;1099;-57
2023/08/23 06:54:38;;;;;;;;;;;;;;;26.82;67.08;95461.03;5135926;27;1138;-58
2023/08/23 06:57:04;;;;;;;;;;;;;;;26.76;66.02;95462.91;5135626;27;1990;-56
2023/08/23 06:59:30;;;;;;;;;;;;;;;27.01;64.99;95456.03;5135481;27;1126;-57
2023/08/23 07:01:56;;;;;;;;;;;;;;;27.18;65.02;95458.69;5135485;27;1091;-57
2023/08/23 07:04:22;;;;;;;;;;;;;;;27.12;65.13;95459.75;5135758;27;1047;-56
2023/08/23 07:06:48;;;;;;;;;;;;;;;27.17;65.42;95455.13;5135808;27;1011;-58
2023/08/23 07:09:14;;;;;;;;;;;;;;;27.35;64.89;95453.97;5135485;27;1110;-56
2023/08/23 07:11:40;;;;;;;;;;;;;;;27.61;63.05;95459.72;5135613;27;988;-58
2023/08/23 07:14:08;;;;;;;;;;;;;;;27.86;61.87;95464.56;5135278;27;1060;-57
2023/08/23 07:16:34;;;;;;;;;;;;;;;28.00;61.50;95459.47;5135383;27;1019;-58
2023/08/23 07:19:03;;;;;;;;;;;;;;;28.03;62.20;95468.03;5135452;27;1906;-58
2023/08/23 07:21:29;;;;;;;;;;;;;;;27.94;61.85;95460.53;5117028;27;1214;-58
2023/08/23 07:23:55;;;;;;;;;;;;;;;28.16;62.01;95461.25;5135438;27;1007;-57
2023/08/23 07:26:21;;;;;;;;;;;;;;;28.23;60.61;95455.53;5134953;27;1028;-56
2023/08/23 07:28:47;;;;;;;;;;;;;;;28.34;62.18;95456.41;5135341;27;965;-57
2023/08/23 07:31:13;;;;;;;;;;;;;;;28.35;60.87;95452.56;5134833;27;1067;-57
2023/08/23 07:33:40;;;;;;;;;;;;;;;28.56;60.63;95453.53;5134873;27;1060;-57
2023/08/23 07:36:06;;;;;;;;;;;;;;;28.77;58.26;95449.78;5134974;27;999;-57
2023/08/23 07:38:32;;;;;;;;;;;;;;;28.94;57.70;95452.31;5134676;27;1989;-57
2023/08/23 07:40:59;;;;;;;;;;;;;;;29.08;55.94;95449.06;5134724;27;1114;-58
2023/08/23 07:43:26;;;;;;;;;;;;;;;29.23;56.21;95454.63;5134968;27;1026;-57
2023/08/23 07:45:53;;;;;;;;;;;;;;;29.34;55.32;95450.81;5134426;27;1293;-56
2023/08/23 07:48:19;;;;;;;;;;;;;;;29.35;55.79;95441.44;5134549;27;1048;-58
2023/08/23 07:50:49;;;;;;;;;;;;;;;29.35;56.64;95435.13;5134875;27;973;-58
2023/08/23 07:53:15;;;;;;;;;;;;;;;29.38;55.64;95440.88;5131679;27;2497;-57
2023/08/23 07:55:41;;;;;;;;;;;;;;;29.47;53.79;95434.84;5134564;27;1044;-57
2023/08/23 07:58:12;;;;;;;;;;;;;;;29.51;55.08;95439.53;5134377;27;1909;-58
2023/08/23 08:00:38;;;;;;;;;;;;;;;29.78;52.61;95431.06;5116221;27;1049;-57
2023/08/23 08:03:07;;;;;;;;;;;;;;;30.08;53.77;95426.59;5134436;27;1048;-57
2023/08/23 08:05:36;;;;;;;;;;;;;;;30.19;53.47;95432.94;5134503;27;1039;-58
2023/08/23 08:08:02;;;;;;;;;;;;;;;30.28;54.06;95430.41;5134682;27;957;-57
2023/08/23 08:10:28;;;;;;;;;;;;;;;30.38;53.50;95430.44;5134497;27;1048;-57
2023/08/23 08:12:55;;;;;;;;;;;;;;;30.36;51.07;95427.13;5134289;27;1036;-57
2023/08/23 08:15:21;;;;;;;;;;;;;;;30.34;50.47;95424.66;5116175;27;972;-57
2023/08/23 08:17:50;;;;;;;;;;;;;;;30.46;51.57;95421.56;5134157;27;1905;-57
2023/08/23 08:20:20;;;;;;;;;;;;;;;30.74;50.46;95419.28;5134340;27;1161;-57
2023/08/23 08:22:46;;;;;;;;;;;;;;;30.80;49.34;95420.91;5134326;27;952;-57
2023/08/23 08:25:12;;;;;;;;;;;;;;;31.00;49.58;95416.41;5134378;28;1024;-58
2023/08/23 08:27:38;;;;;;;;;;;;;;;30.94;50.65;95415.59;5134404;28;977;-58
2023/08/23 08:30:05;;;;;;;;;;;;;;;30.85;48.96;95415.38;5134031;28;928;-57
2023/08/23 08:32:32;;;;;;;;;;;;;;;30.97;47.96;95414.22;5134327;28;1052;-58
2023/08/23 08:34:58;;;;;;;;;;;;;;;31.25;48.57;95418.22;5134009;28;1048;-57
2023/08/23 08:37:25;;;;;;;;;;;;;;;31.39;48.82;95410.91;5133946;28;1906;-58
2023/08/23 08:39:51;;;;;;;;;;;;;;;31.17;48.79;95407.75;5134083;28;1087;-57
2023/08/23 08:42:17;;;;;;;;;;;;;;;31.10;49.03;95413.59;5134152;28;982;-57
2023/08/23 08:44:47;;;;;;;;;;;;;;;31.30;46.73;95410.72;5134014;28;1555;-58
2023/08/23 08:47:13;;;;;;;;;;;;;;;31.56;46.81;95404.22;5134155;27;967;-57
2023/08/23 08:49:39;;;;;;;;;;;;;;;31.75;49.02;95398.81;5138198;27;1024;-57
2023/08/23 08:52:07;;;;;;;;;;;;;;;31.74;46.83;95399.91;5138174;27;957;-58
2023/08/23 08:54:33;;;;;;;;;;;;;;;31.83;46.96;95398.16;5138046;27;1040;-58
2023/08/23 08:57:00;;;;;;;;;;;;;;;31.98;46.16;95398.03;5136105;27;2521;-58
2023/08/23 08:59:26;;;;;;;;;;;;;;;31.81;43.84;95400.41;5138133;27;969;-58
2023/08/23 09:01:54;;;;;;;;;;;;;;;31.70;44.33;95394.97;5137886;27;1052;-56
2023/08/23 09:04:20;;;;;;;;;;;;;;;31.89;44.47;95394.22;5137743;27;1028;-58
2023/08/23 09:06:47;;;;;;;;;;;;;;;32.01;44.86;95385.56;5137797;27;1052;-58
2023/08/23 09:09:13;;;;;;;;;;;;;;;32.09;44.58;95380.25;5137645;27;1040;-58
2023/08/23 09:11:39;;;;;;;;;;;;;;;32.11;44.12;95382.72;5137534;27;913;-58
2023/08/23 09:14:15;;;;;;;;;;;;;;;32.18;44.12;95382.41;5137961;27;1059;-58
2023/08/23 09:16:43;;;;;;;;;;;;;;;32.21;43.04;95385.38;5137806;27;962;-58
2023/08/23 09:19:10;;;;;;;;;;;;;;;32.33;41.71;95381.38;5137330;27;1910;-57
2023/08/23 09:21:41;;;;;;;;;;;;;;;32.41;42.32;95378.81;5137530;27;960;-57
2023/08/23 09:24:07;;;;;;;;;;;;;;;32.42;42.19;95363.88;5137931;27;1079;-57
2023/08/23 09:26:33;;;;;;;;;;;;;;;32.49;42.90;95366.25;5137552;27;1000;-57
2023/08/23 09:29:01;;;;;;;;;;;;;;;32.33;40.79;95373.06;5137649;27;1011;-58
2023/08/23 09:31:27;;;;;;;;;;;;;;;32.46;43.20;95347.47;5137524;27;957;-57
2023/08/23 09:33:53;;;;;;;;;;;;;;;32.62;40.07;95353.69;5136227;27;2467;-57
2023/08/23 09:36:26;;;;;;;;;;;;;;;32.74;40.26;95356.84;5123683;27;2501;-58
2023/08/23 09:38:52;;;;;;;;;;;;;;;32.70;39.33;95349.44;5131573;27;2453;-57
2023/08/23 09:41:18;;;;;;;;;;;;;;;32.76;40.68;95348.22;5137255;27;1064;-58
2023/08/23 09:43:45;;;;;;;;;;;;;;;32.88;40.56;95345.88;5137326;27;1052;-58
2023/08/23 09:46:12;;;;;;;;;;;;;;;32.90;40.36;95337.25;5136288;27;2259;-57
2023/08/23 09:48:40;;;;;;;;;;;;;;;33.06;40.04;95344.22;5120239;27;3015;-57
2023/08/23 09:51:08;;;;;;;;;;;;;;;33.03;36.77;95351.19;5137447;27;1007;-58
2023/08/23 09:53:37;;;;;;;;;;;;;;;32.96;38.16;95342.41;5136918;27;1067;-57
2023/08/23 09:56:04;;;;;;;;;;;;;;;33.09;39.38;95338.09;5136791;27;968;-58
2023/08/23 09:58:30;;;;;;;;;;;;;;;33.35;38.96;95333.00;5136568;27;1993;-58
2023/08/23 10:00:57;;;;;;;;;;;;;;;33.44;38.89;95336.72;5117362;27;1119;-57
2023/08/23 10:03:23;;;;;;;;;;;;;;;33.60;37.63;95330.94;5136899;27;997;-58
2023/08/23 10:05:50;;;;;;;;;;;;;;;33.55;38.29;95334.59;5136846;27;1007;-58
2023/08/23 10:08:18;;;;;;;;;;;;;;;33.31;36.15;95336.66;5136803;27;954;-58
2023/08/23 10:10:49;;;;;;;;;;;;;;;33.25;35.40;95336.75;5136856;27;976;-57
2023/08/23 10:13:16;;;;;;;;;;;;;;;33.36;38.02;95328.28;5136493;27;1044;-58
2023/08/23 10:15:42;;;;;;;;;;;;;;;33.43;36.83;95320.41;5136771;27;1023;-58
2023/08/23 10:18:10;;;;;;;;;;;;;;;33.35;37.49;95316.38;5136322;27;1913;-57
2023/08/23 10:20:36;;;;;;;;;;;;;;;33.34;36.91;95319.44;5136228;27;1294;-58
2023/08/23 10:23:10;;;;;;;;;;;;;;;33.33;37.95;95317.78;5136307;27;1044;-57
2023/08/23 10:25:36;;;;;;;;;;;;;;;33.31;37.35;95311.72;5135054;27;2514;-57
2023/08/23 10:28:03;;;;;;;;;;;;;;;33.38;38.27;95312.16;5136238;27;1102;-58
2023/08/23 10:30:30;;;;;;;;;;;;;;;33.42;39.45;95304.91;5130052;27;2569;-57
2023/08/23 10:33:13;;;;;;;;;;;;;;;33.42;38.32;95308.47;5116828;27;2228;-57
2023/08/23 10:35:40;;;;;;;;;;;;;;;33.57;38.37;95296.31;5115449;28;1083;-56
2023/08/23 10:38:08;;;;;;;;;;;;;;;33.64;38.70;95294.00;5115419;28;1905;-58
2023/08/23 10:40:34;;;;;;;;;;;;;;;33.72;38.24;95298.03;5115575;28;960;-58
2023/08/23 10:43:19;;;;;;;;;;;;;;;33.80;38.76;95291.78;5097341;28;1101;-57
2023/08/23 10:46:02;;;;;;;;;;;;;;;33.82;38.25;95302.56;5115113;28;1227;-58
2023/08/23 10:48:28;;;;;;;;;;;;;;;33.71;37.67;95290.00;5115399;28;1055;-57
2023/08/23 10:50:54;;;;;;;;;;;;;;;33.53;37.26;95289.75;5115540;28;1043;-57
2023/08/23 10:53:21;;;;;;;;;;;;;;;33.58;37.70;95284.13;5115417;28;993;-58
2023/08/23 10:55:47;;;;;;;;;;;;;;;33.50;37.92;95283.97;5116555;27;2525;-57
2023/08/23 10:58:14;;;;;;;;;;;;;;;33.48;36.89;95277.91;5114868;28;1913;-58
2023/08/23 11:00:40;;;;;;;;;;;;;;;33.60;36.54;95279.09;5115083;28;1102;-57
2023/08/23 11:03:06;;;;;;;;;;;;;;;33.70;34.62;95277.28;5131099;27;2431;-58
2023/08/23 11:05:33;;;;;;;;;;;;;;;33.71;35.82;95278.91;5135688;27;1040;-58
2023/08/23 11:08:00;;;;;;;;;;;;;;;33.75;34.81;95279.94;5135559;27;1024;-58
2023/08/23 11:10:26;;;;;;;;;;;;;;;33.76;36.55;95274.09;5135168;27;1180;-57
2023/08/23 11:12:52;;;;;;;;;;;;;;;33.79;36.88;95265.19;5135337;27;1012;-58
2023/08/23 11:15:19;;;;;;;;;;;;;;;33.80;36.29;95271.53;5123914;27;2501;-57
2023/08/23 11:17:45;;;;;;;;;;;;;;;33.78;36.13;95268.25;5114936;28;1918;-58
2023/08/23 11:20:12;;;;;;;;;;;;;;;33.91;36.46;95259.13;5124000;27;1208;-58
2023/08/23 11:22:38;;;;;;;;;;;;;;;33.91;35.93;95266.63;5135446;27;1047;-57
2023/08/23 11:25:04;;;;;;;;;;;;;;;33.73;34.14;95260.88;5129718;27;2533;-58
2023/08/23 11:27:30;;;;;;;;;;;;;;;33.88;37.44;95245.06;5114324;28;1063;-57
2023/08/23 11:29:57;;;;;;;;;;;;;;;33.88;34.45;95251.41;5114732;28;969;-57
2023/08/23 11:32:23;;;;;;;;;;;;;;;33.92;36.65;95246.94;5114606;28;1053;-57
2023/08/23 11:34:49;;;;;;;;;;;;;;;33.99;36.66;95239.00;5114328;28;1037;-57
2023/08/23 11:37:15;;;;;;;;;;;;;;;34.02;36.76;95243.13;5114163;28;1994;-57
2023/08/23 11:39:42;;;;;;;;;;;;;;;33.99;36.55;95235.41;5114622;28;969;-58
2023/08/23 11:42:08;;;;;;;;;;;;;;;33.88;35.60;95233.97;5114458;28;1017;-57
2023/08/23 11:44:34;;;;;;;;;;;;;;;33.91;36.22;95234.16;5114183;28;1122;-58
2023/08/23 11:47:00;;;;;;;;;;;;;;;33.98;35.23;95229.03;5114328;28;961;-57
2023/08/23 11:49:27;;;;;;;;;;;;;;;34.12;35.34;95222.66;5114183;28;1028;-56
2023/08/23 11:51:58;;;;;;;;;;;;;;;34.22;35.23;95220.53;5124029;27;2489;-57
2023/08/23 11:54:24;;;;;;;;;;;;;;;34.25;36.28;95204.41;5134074;27;1055;-57
2023/08/23 11:56:50;;;;;;;;;;;;;;;34.14;34.25;95220.41;5134741;27;957;-58
2023/08/23 11:59:16;;;;;;;;;;;;;;;34.15;34.76;95210.94;5116477;27;1906;-59
2023/08/23 12:01:42;;;;;;;;;;;;;;;34.06;35.07;95207.28;5134755;27;1237;-58
2023/08/23 12:04:11;;;;;;;;;;;;;;;33.87;34.36;95208.19;5133351;27;2557;-58
2023/08/23 12:06:38;;;;;;;;;;;;;;;33.74;35.14;95206.25;5134554;27;1020;-58
2023/08/23 12:09:04;;;;;;;;;;;;;;;33.77;35.04;95200.06;5131337;27;2556;-58
2023/08/23 12:11:33;;;;;;;;;;;;;;;33.94;34.45;95199.44;5134279;27;1060;-58
2023/08/23 12:14:00;;;;;;;;;;;;;;;33.99;35.02;95191.84;5134585;27;1017;-58
2023/08/23 12:16:27;;;;;;;;;;;;;;;34.04;36.17;95188.16;5115144;27;2492;-58
2023/08/23 12:18:53;;;;;;;;;;;;;;;34.01;35.24;95192.34;5134512;27;1917;-58
2023/08/23 12:21:19;;;;;;;;;;;;;;;33.95;33.86;95206.66;5115641;28;1157;-58
2023/08/23 12:23:45;;;;;;;;;;;;;;;33.71;32.13;95213.19;5112839;28;1099;-58
2023/08/23 12:26:10;;;;;;;;;;;;;;;33.23;33.06;95207.97;5113945;28;1023;-58
2023/08/23 12:28:37;;;;;;;;;;;;;;;32.87;32.38;95194.69;5095762;28;1032;-58
2023/08/23 12:31:03;;;;;;;;;;;;;;;32.77;32.04;95195.69;5114113;28;956;-58
2023/08/23 12:33:29;;;;;;;;;;;;;;;32.76;32.21;95194.03;5114263;28;988;-58
2023/08/23 12:35:55;;;;;;;;;;;;;;;32.79;32.41;95190.66;5114088;28;1041;-58
2023/08/23 12:38:21;;;;;;;;;;;;;;;32.87;32.99;95187.19;5123111;28;3106;-58
2023/08/23 12:40:47;;;;;;;;;;;;;;;33.10;32.33;95190.16;5134579;28;991;-58
2023/08/23 12:43:13;;;;;;;;;;;;;;;33.12;30.71;95195.44;5131090;28;2446;-58
2023/08/23 12:46:22;;;;;;;;;;;;;;;33.10;31.55;95192.09;5117587;27;1302720;-58
2023/08/23 12:48:49;;;;;;;;;;;;;;;33.16;30.89;95200.06;5153019;27;982;-57
2023/08/23 12:51:15;;;;;;;;;;;;;;;33.10;31.76;95190.16;5152972;27;1029;-58
2023/08/23 12:53:41;;;;;;;;;;;;;;;33.17;31.05;95195.34;5152693;27;1102;-58
2023/08/23 12:56:07;;;;;;;;;;;;;;;33.21;32.72;95194.41;5152921;27;1068;-58